createdAt,value
2018-12-26T00:00:15.964Z,2.08
2018-12-26T00:02:51.746Z,2.00
2018-12-26T00:05:25.636Z,1.98
2018-12-26T00:07:59.150Z,1.98
2018-12-26T00:10:32.387Z,2.09
2018-12-26T00:13:05.728Z,2.14
2018-12-26T00:15:38.814Z,2.10
2018-12-26T00:18:11.420Z,2.03
2018-12-26T00:20:44.905Z,2.03
2018-12-26T00:23:18.771Z,2.08
2018-12-26T00:25:51.869Z,2.14
2018-12-26T00:28:25.190Z,2.14
2018-12-26T00:30:58.213Z,2.21
2018-12-26T00:33:31.505Z,2.24
2018-12-26T00:36:05.086Z,2.26
2018-12-26T00:38:41.040Z,2.27
2018-12-26T00:41:15.890Z,2.30
2018-12-26T00:43:49.263Z,2.30
2018-12-26T00:46:22.764Z,2.32
2018-12-26T00:48:55.777Z,2.29
2018-12-26T00:51:28.858Z,2.26
2018-12-26T00:54:02.547Z,2.27
2018-12-26T00:56:35.983Z,2.25
2018-12-26T00:59:08.954Z,2.23
2018-12-26T01:01:42.274Z,2.17
2018-12-26T01:04:15.558Z,2.16
2018-12-26T01:06:48.503Z,2.14
2018-12-26T01:09:22.363Z,2.12
2018-12-26T01:11:55.803Z,2.09
2018-12-26T01:14:29.520Z,2.10
2018-12-26T01:17:03.029Z,2.08
2018-12-26T01:19:37.270Z,2.03
2018-12-26T01:22:10.704Z,1.99
2018-12-26T01:24:44.063Z,2.00
2018-12-26T01:27:19.884Z,2.00
2018-12-26T01:29:53.586Z,1.98
2018-12-26T01:32:26.973Z,1.94
2018-12-26T01:35:00.289Z,1.94
2018-12-26T01:37:33.671Z,1.94
2018-12-26T01:40:07.548Z,1.92
2018-12-26T01:42:43.240Z,1.91
2018-12-26T01:45:17.129Z,1.88
2018-12-26T01:47:50.567Z,1.84
2018-12-26T01:50:24.358Z,1.82
2018-12-26T01:52:57.848Z,1.78
2018-12-26T01:55:31.511Z,1.83
2018-12-26T01:58:04.427Z,1.81
2018-12-26T02:00:37.600Z,1.73
2018-12-26T02:03:11.444Z,1.70
2018-12-26T02:05:45.507Z,1.71
2018-12-26T02:08:18.470Z,1.70
2018-12-26T02:10:51.844Z,1.72
2018-12-26T02:13:25.005Z,1.68
2018-12-26T02:15:58.700Z,1.67
2018-12-26T02:18:32.469Z,1.63
2018-12-26T02:21:05.447Z,1.60
2018-12-26T02:23:39.170Z,1.62
2018-12-26T02:26:13.010Z,1.59
2018-12-26T02:28:46.941Z,1.57
2018-12-26T02:31:20.337Z,1.56
2018-12-26T02:33:54.073Z,1.52
2018-12-26T02:36:27.168Z,1.48
2018-12-26T02:39:00.433Z,1.46
2018-12-26T02:41:34.360Z,1.41
2018-12-26T02:44:07.783Z,1.43
2018-12-26T02:46:41.588Z,1.43
2018-12-26T02:49:15.087Z,1.40
2018-12-26T02:51:49.871Z,1.42
2018-12-26T02:54:22.587Z,1.40
2018-12-26T02:56:56.274Z,1.35
2018-12-26T02:59:29.748Z,1.38
2018-12-26T03:02:03.048Z,1.44
2018-12-26T03:04:36.023Z,1.38
2018-12-26T03:07:09.542Z,1.40
2018-12-26T03:09:42.538Z,1.36
2018-12-26T03:12:15.497Z,1.34
2018-12-26T03:14:50.561Z,1.36
2018-12-26T03:17:23.648Z,1.36
2018-12-26T03:19:57.170Z,1.40
2018-12-26T03:22:30.527Z,1.32
2018-12-26T03:25:03.850Z,1.32
2018-12-26T03:27:37.227Z,1.31
2018-12-26T03:30:10.214Z,1.32
2018-12-26T03:32:43.111Z,1.30
2018-12-26T03:35:16.394Z,1.27
2018-12-26T03:37:49.492Z,1.24
2018-12-26T03:40:24.377Z,1.23
2018-12-26T03:42:57.803Z,1.24
2018-12-26T03:45:32.532Z,1.23
2018-12-26T03:48:06.451Z,1.23
2018-12-26T03:50:39.862Z,1.22
2018-12-26T03:53:12.924Z,1.24
2018-12-26T03:55:46.140Z,1.24
2018-12-26T03:58:18.645Z,1.27
2018-12-26T04:00:52.547Z,1.26
2018-12-26T04:03:25.913Z,1.25
2018-12-26T04:05:59.725Z,1.20
2018-12-26T04:08:33.208Z,1.22
2018-12-26T04:11:05.900Z,1.31
2018-12-26T04:13:39.414Z,1.26
2018-12-26T04:16:12.264Z,1.27
2018-12-26T04:18:45.756Z,1.27
2018-12-26T04:21:18.964Z,1.25
2018-12-26T04:23:52.686Z,1.27
2018-12-26T04:26:26.275Z,1.28
2018-12-26T04:28:59.693Z,1.31
2018-12-26T04:31:32.699Z,1.28
2018-12-26T04:34:05.925Z,1.31
2018-12-26T04:36:38.995Z,1.31
2018-12-26T04:39:12.045Z,1.36
2018-12-26T04:41:45.718Z,1.34
2018-12-26T04:44:18.792Z,1.33
2018-12-26T04:46:52.216Z,1.36
2018-12-26T04:49:25.111Z,1.33
2018-12-26T04:51:57.302Z,1.37
2018-12-26T04:54:30.840Z,1.39
2018-12-26T04:57:04.490Z,1.45
2018-12-26T04:59:38.185Z,1.43
2018-12-26T05:02:12.098Z,1.48
2018-12-26T05:04:45.396Z,1.44
2018-12-26T05:07:19.220Z,1.47
2018-12-26T05:09:53.027Z,1.48
2018-12-26T05:12:26.904Z,1.49
2018-12-26T05:15:00.435Z,1.51
2018-12-26T05:17:33.393Z,1.46
2018-12-26T05:20:06.828Z,1.38
2018-12-26T05:22:39.556Z,1.34
2018-12-26T05:25:14.491Z,1.31
2018-12-26T05:27:47.661Z,1.27
2018-12-26T05:30:20.611Z,1.20
2018-12-26T05:32:53.979Z,1.18
2018-12-26T05:35:27.946Z,1.14
2018-12-26T05:38:01.276Z,1.15
2018-12-26T05:40:35.641Z,1.09
2018-12-26T05:43:08.517Z,1.07
2018-12-26T05:45:41.682Z,1.04
2018-12-26T05:48:15.183Z,1.06
2018-12-26T05:50:48.508Z,1.03
2018-12-26T05:53:21.463Z,0.97
2018-12-26T05:55:54.454Z,0.98
2018-12-26T05:58:27.964Z,0.96
2018-12-26T06:01:00.961Z,0.95
2018-12-26T06:03:33.628Z,0.97
2018-12-26T06:06:06.525Z,0.91
2018-12-26T06:08:39.828Z,0.88
2018-12-26T06:11:12.824Z,0.88
2018-12-26T06:13:46.647Z,0.85
2018-12-26T06:16:19.965Z,0.84
2018-12-26T06:18:53.005Z,0.86
2018-12-26T06:21:26.401Z,0.86
2018-12-26T06:24:02.545Z,0.85
2018-12-26T06:26:37.384Z,0.88
2018-12-26T06:29:13.236Z,0.89
2018-12-26T06:31:47.015Z,0.84
2018-12-26T06:34:20.051Z,0.83
2018-12-26T06:36:53.627Z,0.82
2018-12-26T06:39:27.454Z,0.86
2018-12-26T06:42:00.652Z,0.89
2018-12-26T06:44:35.141Z,0.85
2018-12-26T06:47:08.527Z,0.86
2018-12-26T06:49:41.562Z,0.87
2018-12-26T06:52:14.629Z,0.89
2018-12-26T06:54:47.284Z,0.91
2018-12-26T06:57:20.617Z,0.96
2018-12-26T06:59:53.969Z,0.95
2018-12-26T07:02:27.417Z,0.97
2018-12-26T07:05:02.234Z,0.97
2018-12-26T07:07:38.410Z,0.98
2018-12-26T07:10:11.695Z,0.98
2018-12-26T07:12:45.411Z,0.99
2018-12-26T07:15:18.489Z,0.98
2018-12-26T07:17:51.730Z,1.00
2018-12-26T07:20:25.204Z,0.98
2018-12-26T07:22:58.335Z,1.01
2018-12-26T07:25:31.588Z,1.04
2018-12-26T07:28:09.213Z,0.98
2018-12-26T07:30:39.885Z,1.00
2018-12-26T07:33:13.267Z,0.98
2018-12-26T07:35:46.266Z,0.98
2018-12-26T07:38:19.914Z,0.94
2018-12-26T07:40:53.394Z,0.90
2018-12-26T07:43:27.112Z,0.86
2018-12-26T07:46:00.159Z,0.87
2018-12-26T07:48:33.478Z,0.86
2018-12-26T07:51:07.315Z,0.87
2018-12-26T07:53:40.371Z,0.89
2018-12-26T07:56:13.318Z,0.88
2018-12-26T07:58:46.564Z,0.88
2018-12-26T08:01:19.628Z,0.89
2018-12-26T08:03:53.439Z,0.89
2018-12-26T08:06:26.434Z,0.93
2018-12-26T08:09:00.012Z,0.95
2018-12-26T08:11:33.655Z,0.93
2018-12-26T08:14:07.249Z,0.97
2018-12-26T08:16:42.141Z,1.00
2018-12-26T08:19:15.967Z,0.94
2018-12-26T08:21:49.649Z,0.90
2018-12-26T08:24:22.876Z,0.94
2018-12-26T08:26:55.897Z,0.93
2018-12-26T08:29:29.774Z,0.94
2018-12-26T08:32:03.167Z,0.92
2018-12-26T08:34:37.527Z,0.89
2018-12-26T08:37:11.049Z,0.91
2018-12-26T08:39:44.033Z,0.98
2018-12-26T08:42:17.213Z,1.03
2018-12-26T08:44:52.930Z,1.04
2018-12-26T08:47:26.009Z,1.02
2018-12-26T08:49:59.103Z,1.06
2018-12-26T08:52:32.610Z,1.12
2018-12-26T08:55:05.347Z,1.08
2018-12-26T08:57:38.366Z,1.06
2018-12-26T09:00:11.261Z,1.07
2018-12-26T09:02:44.754Z,1.08
2018-12-26T09:05:18.195Z,1.09
2018-12-26T09:07:51.754Z,1.08
2018-12-26T09:10:25.062Z,1.14
2018-12-26T09:12:59.140Z,1.07
2018-12-26T09:15:32.152Z,1.03
2018-12-26T09:18:05.239Z,1.06
2018-12-26T09:20:44.659Z,1.06
2018-12-26T09:23:17.741Z,1.03
2018-12-26T09:25:57.407Z,1.04
2018-12-26T09:28:31.355Z,1.05
2018-12-26T09:31:04.707Z,1.05
2018-12-26T09:33:38.121Z,1.04
2018-12-26T09:36:12.088Z,1.08
2018-12-26T09:38:45.169Z,1.09
2018-12-26T09:41:18.943Z,1.14
2018-12-26T09:43:52.022Z,1.13
2018-12-26T09:46:24.987Z,1.17
2018-12-26T09:48:57.989Z,1.16
2018-12-26T09:51:31.840Z,1.22
2018-12-26T09:54:05.797Z,1.25
2018-12-26T09:56:39.153Z,1.26
2018-12-26T09:59:12.846Z,1.27
2018-12-26T10:01:46.269Z,1.29
2018-12-26T10:04:19.724Z,1.24
2018-12-26T10:06:51.953Z,1.22
2018-12-26T10:09:25.359Z,1.25
2018-12-26T12:39:31.829Z,1.65
2018-12-26T12:42:04.975Z,1.48
2018-12-26T12:44:38.283Z,1.50
2018-12-26T12:47:11.618Z,1.47
2018-12-26T12:49:47.144Z,1.49
2018-12-26T12:52:21.085Z,1.49
2018-12-26T12:54:56.439Z,1.50
2018-12-26T12:57:29.849Z,1.50
2018-12-26T13:00:03.245Z,1.49
2018-12-26T13:02:36.342Z,1.51
2018-12-26T13:05:10.415Z,1.52
2018-12-26T13:07:43.577Z,1.52
2018-12-26T13:10:17.171Z,1.56
2018-12-26T13:12:51.291Z,1.54
2018-12-26T13:15:24.546Z,1.56
2018-12-26T13:17:58.527Z,1.59
2018-12-26T13:20:31.942Z,1.60
2018-12-26T13:23:04.565Z,1.58
2018-12-26T13:25:38.436Z,1.62
2018-12-26T13:28:11.675Z,1.61
2018-12-26T13:30:44.857Z,1.60
2018-12-26T13:33:18.772Z,1.61
2018-12-26T13:35:52.195Z,1.63
2018-12-26T13:38:26.088Z,1.65
2018-12-26T13:40:59.464Z,1.65
2018-12-26T13:43:32.526Z,1.68
2018-12-26T13:46:05.207Z,1.68
2018-12-26T13:48:38.419Z,1.69
2018-12-26T13:51:11.512Z,1.68
2018-12-26T13:53:44.274Z,1.68
2018-12-26T13:56:17.778Z,1.73
2018-12-26T13:58:50.459Z,1.71
2018-12-26T14:01:23.215Z,1.72
2018-12-26T14:03:57.174Z,1.73
2018-12-26T14:06:30.827Z,1.76
2018-12-26T14:09:04.783Z,1.81
2018-12-26T14:11:38.458Z,1.78
2018-12-26T14:14:11.987Z,1.77
2018-12-26T14:16:48.143Z,1.80
2018-12-26T14:19:21.244Z,1.83
2018-12-26T14:21:54.841Z,1.82
2018-12-26T14:24:31.313Z,1.80
2018-12-26T14:27:03.742Z,1.86
2018-12-26T14:29:36.921Z,1.85
2018-12-26T14:32:10.267Z,1.81
2018-12-26T14:34:43.915Z,1.80
2018-12-26T14:37:16.533Z,1.83
2018-12-26T14:39:49.942Z,1.79
2018-12-26T14:42:23.495Z,1.83
2018-12-26T14:44:57.451Z,1.84
2018-12-26T14:47:32.314Z,1.77
2018-12-26T14:50:05.481Z,1.77
2018-12-26T14:52:38.559Z,1.74
2018-12-26T14:55:11.272Z,1.81
2018-12-26T14:57:44.329Z,1.76
2018-12-26T15:00:20.091Z,1.72
2018-12-26T15:02:52.220Z,1.71
2018-12-26T15:05:25.937Z,1.70
2018-12-26T15:07:58.515Z,1.74
2018-12-26T15:10:32.906Z,1.68
2018-12-26T15:13:05.933Z,1.74
2018-12-26T15:15:38.988Z,1.70
2018-12-26T15:18:12.447Z,1.72
2018-12-26T15:20:46.017Z,1.73
2018-12-26T15:23:19.558Z,1.72
2018-12-26T15:25:52.788Z,1.74
2018-12-26T15:28:25.430Z,1.74
2018-12-26T15:30:59.388Z,1.75
2018-12-26T15:33:33.688Z,1.77
2018-12-26T15:36:07.441Z,1.79
2018-12-26T15:38:41.041Z,1.84
2018-12-26T15:41:14.957Z,1.80
2018-12-26T15:43:48.145Z,1.83
2018-12-26T15:46:21.935Z,1.82
2018-12-26T15:48:54.915Z,1.85
2018-12-26T15:51:28.385Z,1.84
2018-12-26T15:54:00.707Z,1.83
2018-12-26T15:56:35.029Z,1.90
2018-12-26T15:59:08.786Z,1.80
2018-12-26T16:01:43.550Z,1.81
2018-12-26T16:04:17.463Z,1.82
2018-12-26T16:06:51.432Z,1.86
2018-12-26T16:09:24.154Z,1.84
2018-12-26T16:11:56.724Z,1.82
2018-12-26T16:14:29.797Z,1.84
2018-12-26T16:17:02.529Z,1.83
2018-12-26T16:19:36.002Z,1.86
2018-12-26T16:22:10.003Z,1.85
2018-12-26T16:24:46.861Z,1.86
2018-12-26T16:27:19.864Z,1.88
2018-12-26T16:29:53.507Z,1.88
2018-12-26T16:32:27.093Z,1.87
2018-12-26T16:35:00.564Z,1.92
2018-12-26T16:37:34.008Z,1.93
2018-12-26T16:40:10.389Z,1.91
2018-12-26T16:42:43.754Z,1.91
2018-12-26T16:45:17.071Z,1.91
2018-12-26T16:47:50.524Z,1.93
2018-12-26T16:50:27.164Z,1.97
2018-12-26T16:52:59.065Z,1.93
2018-12-26T16:55:32.069Z,1.91
2018-12-26T16:58:05.230Z,1.93
2018-12-26T17:00:38.251Z,1.97
2018-12-26T17:03:15.317Z,1.99
2018-12-26T17:05:51.573Z,1.95
2018-12-26T17:08:25.380Z,1.96
2018-12-26T17:10:58.894Z,1.94
2018-12-26T17:13:32.498Z,1.98
2018-12-26T17:16:05.478Z,1.97
2018-12-26T17:18:39.084Z,1.97
2018-12-26T17:21:13.042Z,1.95
2018-12-26T17:23:47.167Z,1.99
2018-12-26T17:26:20.799Z,2.02
2018-12-26T17:28:54.831Z,2.02
2018-12-26T17:31:28.013Z,2.10
2018-12-26T17:34:01.263Z,2.01
2018-12-26T17:36:35.428Z,2.02
2018-12-26T17:39:09.195Z,2.03
2018-12-26T17:41:42.480Z,2.04
2018-12-26T17:44:16.044Z,2.04
2018-12-26T17:46:48.981Z,2.01
2018-12-26T17:49:22.529Z,2.04
2018-12-26T17:51:56.019Z,2.03
2018-12-26T17:54:52.948Z,2.04
2018-12-26T17:57:32.451Z,2.05
2018-12-26T18:00:29.151Z,2.07
2018-12-26T18:03:03.139Z,2.08
2018-12-26T18:05:37.037Z,2.09
2018-12-26T18:08:10.140Z,2.10
2018-12-26T18:10:43.657Z,2.09
2018-12-26T18:13:16.362Z,2.11
2018-12-26T18:15:50.349Z,2.09
2018-12-26T18:18:23.832Z,2.10
2018-12-26T18:21:02.266Z,2.10
2018-12-26T18:23:35.065Z,2.08
2018-12-26T18:26:08.454Z,2.15
2018-12-26T18:28:42.265Z,2.11
2018-12-26T18:31:21.972Z,2.10
2018-12-26T18:33:50.885Z,2.14
2018-12-26T18:36:24.369Z,2.12
2018-12-26T18:38:57.793Z,2.12
2018-12-26T18:41:31.167Z,2.17
2018-12-26T18:44:04.350Z,2.14
2018-12-26T18:46:37.750Z,2.18
2018-12-26T18:49:10.850Z,2.16
2018-12-26T18:51:43.862Z,2.21
2018-12-26T18:54:16.420Z,2.17
2018-12-26T18:56:49.838Z,2.21
2018-12-26T18:59:22.912Z,2.17
2018-12-26T19:01:57.445Z,2.19
2018-12-26T19:04:30.638Z,2.21
2018-12-26T19:07:04.110Z,2.24
2018-12-26T19:09:37.176Z,2.23
2018-12-26T19:12:10.192Z,2.25
2018-12-26T19:14:43.813Z,2.31
2018-12-26T19:17:16.819Z,2.30
2018-12-26T19:19:50.523Z,2.28
2018-12-26T19:22:23.652Z,2.27
2018-12-26T19:24:56.316Z,2.26
2018-12-26T19:27:29.060Z,2.27
2018-12-26T19:30:02.539Z,2.27
2018-12-26T19:32:36.066Z,2.27
2018-12-26T19:35:15.061Z,2.25
2018-12-26T19:37:48.580Z,2.23
2018-12-26T19:40:22.388Z,2.26
2018-12-26T19:42:56.705Z,2.23
2018-12-26T19:45:31.021Z,2.25
2018-12-26T19:48:04.242Z,2.25
2018-12-26T19:50:37.281Z,2.25
2018-12-26T19:53:10.913Z,2.29
2018-12-26T19:55:44.074Z,2.27
2018-12-26T19:58:19.469Z,2.27
2018-12-26T20:00:52.120Z,2.26
2018-12-26T20:03:25.532Z,2.27
2018-12-26T20:05:59.417Z,2.27
2018-12-26T20:08:32.082Z,2.28
2018-12-26T20:11:08.531Z,2.27
2018-12-26T20:13:42.175Z,2.31
2018-12-26T20:16:14.835Z,2.29
2018-12-26T20:18:48.869Z,2.32
2018-12-26T20:21:22.963Z,2.33
2018-12-26T20:23:55.834Z,2.33
2018-12-26T20:26:28.503Z,2.32
2018-12-26T20:29:02.571Z,2.35
2018-12-26T20:31:35.965Z,2.33
2018-12-26T20:34:09.186Z,2.42
2018-12-26T20:36:42.756Z,2.37
2018-12-26T20:39:16.318Z,2.32
2018-12-26T20:41:49.553Z,2.31
2018-12-26T20:44:24.672Z,2.32
2018-12-26T20:47:00.659Z,2.31
2018-12-26T20:49:34.136Z,2.35
2018-12-26T20:52:07.877Z,2.32
2018-12-26T20:54:42.534Z,2.28
2018-12-26T20:57:15.666Z,2.28
2018-12-26T20:59:48.354Z,2.29
2018-12-26T21:02:21.769Z,2.28
2018-12-26T21:04:54.794Z,2.27
2018-12-26T21:07:27.918Z,2.30
2018-12-26T21:10:01.539Z,2.29
2018-12-26T21:12:36.049Z,2.29
2018-12-26T21:15:09.940Z,2.35
2018-12-26T21:17:43.857Z,2.33
2018-12-26T21:20:16.947Z,2.32
2018-12-26T21:22:50.680Z,2.32
2018-12-26T21:25:24.264Z,2.33
2018-12-26T21:27:57.724Z,2.44
2018-12-26T21:30:31.169Z,2.33
2018-12-26T21:33:06.188Z,2.37
2018-12-26T21:35:40.023Z,2.37
2018-12-26T21:38:13.211Z,2.38
2018-12-26T21:40:46.884Z,2.47
2018-12-26T21:43:20.016Z,2.34
2018-12-26T21:45:54.002Z,2.35
2018-12-26T21:48:27.092Z,2.30
2018-12-26T21:51:00.466Z,2.31
2018-12-26T21:53:34.294Z,2.29
2018-12-26T21:56:10.251Z,2.26
2018-12-26T21:58:44.214Z,2.20
2018-12-26T22:01:17.516Z,2.20
2018-12-26T22:03:50.634Z,2.22
2018-12-26T22:06:25.007Z,2.19
2018-12-26T22:08:58.048Z,2.20
2018-12-26T22:11:31.559Z,2.23
2018-12-26T22:14:04.737Z,2.25
2018-12-26T22:16:38.335Z,2.22
2018-12-26T22:19:12.996Z,2.21
2018-12-26T22:21:46.553Z,2.21
2018-12-26T22:24:20.106Z,2.20
2018-12-26T22:26:54.114Z,2.15
2018-12-26T22:29:27.464Z,2.12
2018-12-26T22:32:00.682Z,2.17
2018-12-26T22:34:34.784Z,2.19
2018-12-26T22:37:11.686Z,2.17
2018-12-26T22:39:45.271Z,2.18
2018-12-26T22:42:19.041Z,2.16
2018-12-26T22:44:51.803Z,2.18
2018-12-26T22:47:25.236Z,2.13
2018-12-26T22:49:58.922Z,2.19
2018-12-26T22:52:32.205Z,2.18
2018-12-26T22:55:05.442Z,2.13
2018-12-26T22:57:39.001Z,2.09
2018-12-26T23:00:14.926Z,2.12
2018-12-26T23:02:50.454Z,2.11
2018-12-26T23:05:24.244Z,2.09
2018-12-26T23:07:57.514Z,2.10
2018-12-26T23:10:30.662Z,2.07
2018-12-26T23:13:03.371Z,2.02
2018-12-26T23:15:35.578Z,2.06
2018-12-26T23:18:09.073Z,2.03
2018-12-26T23:20:45.030Z,1.99
2018-12-26T23:23:18.298Z,1.96
2018-12-26T23:25:51.390Z,1.94
2018-12-26T23:28:24.591Z,1.92
2018-12-26T23:30:57.966Z,1.88
2018-12-26T23:33:31.358Z,1.86
2018-12-26T23:36:04.771Z,1.81
2018-12-26T23:38:38.297Z,1.71
2018-12-26T23:41:11.910Z,1.67
2018-12-26T23:43:45.617Z,1.72
2018-12-26T23:46:19.057Z,1.75
2018-12-26T23:48:52.216Z,1.71
2018-12-26T23:51:24.851Z,1.66
2018-12-26T23:53:57.488Z,1.78
2018-12-26T23:56:30.862Z,1.79
2018-12-26T23:59:04.402Z,1.84
